Time;durP1;ratioP1;P1;durP2;ratioP2;P2;SDS_P1;SDS_P2;PMS_P1;PMS_P2;Temp;Humidity;BMP_temperature;BMP_pressure;BME280_temperature;BME280_humidity;BME280_pressure;Samples;Min_cycle;Max_cycle;Signal;HPM_P1;HPM_P2
2023/09/06 00:01:20;;;;;;;5.88;2.50;;;18.90;99.90;;;;;;5046093;28;20215;-66
2023/09/06 00:03:46;;;;;;;3.60;2.92;;;18.90;99.90;;;;;;5010735;28;20660;-65
2023/09/06 00:06:13;;;;;;;4.78;3.10;;;18.90;99.90;;;;;;5049795;28;20202;-66
2023/09/06 00:08:40;;;;;;;4.45;2.72;;;;;;;;;;5063162;28;21127;-66
2023/09/06 00:11:07;;;;;;;3.47;3.00;;;18.90;99.90;;;;;;5050894;28;20215;-66
2023/09/06 00:13:35;;;;;;;4.05;3.05;;;18.20;99.90;;;;;;5055826;28;20212;-65
2023/09/06 00:16:03;;;;;;;5.45;2.92;;;18.80;99.90;;;;;;5045172;28;20220;-66
2023/09/06 00:18:31;;;;;;;3.88;2.85;;;18.80;99.90;;;;;;5023842;28;20255;-66
2023/09/06 00:20:58;;;;;;;2.80;2.60;;;18.80;99.90;;;;;;5055930;28;20434;-66
2023/09/06 00:23:26;;;;;;;6.03;2.97;;;18.90;99.90;;;;;;5046425;28;25615;-66
2023/09/06 00:25:53;;;;;;;3.83;2.80;;;18.70;99.90;;;;;;5046543;28;20205;-66
2023/09/06 00:28:20;;;;;;;4.18;2.83;;;18.80;99.90;;;;;;5050959;28;20208;-65
2023/09/06 00:30:47;;;;;;;3.80;2.72;;;18.60;99.90;;;;;;5045028;28;20201;-66
2023/09/06 00:33:14;;;;;;;4.85;2.72;;;18.70;99.90;;;;;;5062931;28;20675;-66
2023/09/06 00:35:43;;;;;;;4.30;2.92;;;18.70;99.90;;;;;;5022770;28;20366;-65
2023/09/06 00:38:10;;;;;;;3.20;2.90;;;18.60;99.90;;;;;;5053986;28;20311;-66
2023/09/06 00:40:39;;;;;;;3.03;2.75;;;18.60;99.90;;;;;;5063241;28;20200;-65
2023/09/06 00:43:08;;;;;;;3.22;2.90;;;18.60;99.90;;;;;;5046441;28;20227;-66
2023/09/06 00:45:39;;;;;;;3.08;2.78;;;18.50;99.90;;;;;;5052643;28;20684;-66
2023/09/06 00:48:08;;;;;;;4.60;2.60;;;18.70;99.90;;;;;;5048189;28;20373;-66
2023/09/06 00:50:35;;;;;;;3.08;2.75;;;18.70;99.90;;;;;;5016372;28;20299;-66
2023/09/06 00:53:06;;;;;;;3.60;3.30;;;18.70;99.90;;;;;;5056340;28;20196;-65
2023/09/06 00:55:34;;;;;;;3.63;2.72;;;18.70;99.90;;;;;;5047924;28;20217;-66
2023/09/06 00:58:01;;;;;;;3.97;3.03;;;18.70;99.90;;;;;;5034970;28;20377;-66
2023/09/06 01:00:28;;;;;;;3.47;3.10;;;18.70;99.90;;;;;;5054796;28;20200;-66
2023/09/06 01:02:56;;;;;;;4.18;2.70;;;18.50;99.90;;;;;;5032903;28;20270;-66
2023/09/06 01:05:24;;;;;;;2.70;2.38;;;18.70;99.90;;;;;;5052654;28;20201;-66
2023/09/06 01:07:55;;;;;;;4.85;2.80;;;18.70;99.90;;;;;;5010218;28;20211;-66
2023/09/06 01:10:24;;;;;;;3.25;2.30;;;18.50;99.90;;;;;;5048562;28;20204;-66
2023/09/06 01:12:54;;;;;;;18.80;7.60;;;18.40;99.90;;;;;;5055354;28;20196;-65
2023/09/06 01:15:22;;;;;;;13.32;7.50;;;18.50;99.90;;;;;;5047096;28;20227;-66
2023/09/06 01:17:51;;;;;;;13.43;8.07;;;18.60;99.90;;;;;;5043259;28;20201;-66
2023/09/06 01:20:31;;;;;;;16.42;8.00;;;18.40;99.90;;;;;;5055835;28;20197;-66
2023/09/06 01:23:07;;;;;;;17.70;6.88;;;18.30;99.90;;;;;;5018612;28;20196;-66
2023/09/06 01:25:35;;;;;;;22.83;10.32;;;18.30;99.90;;;;;;5035498;28;20200;-66
2023/09/06 01:28:02;;;;;;;26.73;12.00;;;18.30;99.90;;;;;;5055830;28;20678;-65
2023/09/06 01:30:30;;;;;;;34.05;12.45;;;18.30;99.90;;;;;;5040273;28;20669;-66
2023/09/06 01:32:56;;;;;;;22.63;10.20;;;18.20;99.90;;;;;;5052023;28;20200;-66
2023/09/06 01:35:23;;;;;;;19.45;9.07;;;18.20;99.90;;;;;;5050758;28;20208;-65
2023/09/06 01:37:50;;;;;;;17.75;7.90;;;18.20;99.90;;;;;;5020080;28;20207;-66
2023/09/06 01:40:18;;;;;;;11.38;7.05;;;18.20;99.90;;;;;;5042508;28;20204;-66
2023/09/06 01:42:46;;;;;;;9.73;5.43;;;18.10;99.90;;;;;;5056562;28;20912;-66
2023/09/06 01:45:17;;;;;;;11.00;5.78;;;18.10;99.90;;;;;;5043151;28;20201;-66
2023/09/06 01:47:44;;;;;;;18.17;8.45;;;18.40;99.90;;;;;;5049532;28;20455;-66
2023/09/06 01:50:11;;;;;;;20.35;9.38;;;18.10;99.90;;;;;;5044660;28;20220;-66
2023/09/06 01:52:40;;;;;;;25.25;9.27;;;18.10;99.90;;;;;;5010846;28;20216;-66
2023/09/06 01:55:08;;;;;;;19.88;8.55;;;17.60;99.90;;;;;;5039610;28;20391;-65
2023/09/06 01:57:35;;;;;;;15.43;7.20;;;;;;;;;;5044113;28;20215;-65
2023/09/06 02:00:18;;;;;;;14.35;6.80;;;18.10;99.90;;;;;;5047451;28;20225;-65
2023/09/06 02:02:45;;;;;;;10.75;6.47;;;18.00;99.90;;;;;;5044439;28;20219;-65
2023/09/06 02:05:12;;;;;;;9.77;4.95;;;18.00;99.90;;;;;;5045663;28;20203;-66
2023/09/06 02:07:39;;;;;;;8.13;4.97;;;18.00;99.90;;;;;;5039163;28;20204;-65
2023/09/06 02:10:08;;;;;;;9.60;4.40;;;18.00;99.90;;;;;;5036316;28;20659;-65
2023/09/06 02:12:35;;;;;;;4.47;3.83;;;18.00;99.90;;;;;;5040504;28;20909;-66
2023/09/06 02:15:05;;;;;;;6.55;3.75;;;18.20;99.90;;;;;;5054339;28;20594;-65
2023/09/06 02:17:31;;;;;;;4.18;3.58;;;18.20;99.90;;;;;;5046889;28;20201;-66
2023/09/06 02:20:01;;;;;;;3.72;3.08;;;18.20;99.90;;;;;;5055464;28;20216;-66
2023/09/06 02:22:27;;;;;;;2.95;2.65;;;18.20;99.90;;;;;;5044178;28;20704;-66
2023/09/06 02:24:54;;;;;;;5.75;2.88;;;18.00;99.90;;;;;;5017277;28;20485;-66
2023/09/06 02:27:21;;;;;;;3.03;2.55;;;18.00;99.90;;;;;;5051266;28;20227;-65
2023/09/06 02:29:51;;;;;;;3.28;2.42;;;17.60;99.90;;;;;;5056258;28;20201;-65
2023/09/06 02:32:19;;;;;;;4.75;2.72;;;17.70;99.90;;;;;;5049866;28;20197;-66
2023/09/06 02:34:47;;;;;;;4.57;2.88;;;17.40;99.90;;;;;;5052582;28;20203;-66
2023/09/06 02:37:13;;;;;;;2.80;2.60;;;17.30;99.90;;;;;;5032821;28;20208;-65
2023/09/06 02:39:40;;;;;;;3.70;2.65;;;17.30;99.90;;;;;;5019594;28;20232;-65
2023/09/06 02:42:07;;;;;;;4.70;2.80;;;18.40;99.90;;;;;;5044525;28;20214;-65
2023/09/06 02:44:33;;;;;;;4.13;2.58;;;17.30;99.90;;;;;;5061474;28;20540;-66
2023/09/06 02:47:03;;;;;;;4.07;2.90;;;17.30;99.90;;;;;;5056324;28;20292;-66
2023/09/06 02:49:32;;;;;;;3.05;2.75;;;17.30;99.90;;;;;;5045922;28;20273;-65
2023/09/06 02:51:58;;;;;;;4.80;3.20;;;17.30;99.90;;;;;;5041338;28;20998;-65
2023/09/06 02:54:26;;;;;;;5.10;2.80;;;17.40;99.90;;;;;;5011226;28;20240;-65
2023/09/06 02:56:56;;;;;;;5.15;2.88;;;17.60;99.90;;;;;;5045011;28;20250;-65
2023/09/06 02:59:23;;;;;;;3.42;2.60;;;17.50;99.90;;;;;;5052128;28;20226;-65
2023/09/06 03:01:50;;;;;;;3.25;2.95;;;17.60;99.90;;;;;;5050175;28;20200;-65
2023/09/06 03:04:17;;;;;;;4.28;2.88;;;17.60;99.90;;;;;;5041748;28;20208;-65
2023/09/06 03:06:45;;;;;;;19.83;3.47;;;17.70;99.90;;;;;;5041031;28;20211;-65
2023/09/06 03:09:12;;;;;;;3.75;2.92;;;17.60;99.90;;;;;;5042613;28;20193;-65
2023/09/06 03:11:39;;;;;;;3.55;3.10;;;17.60;99.90;;;;;;5013456;28;20425;-65
2023/09/06 03:14:06;;;;;;;2.80;2.55;;;17.50;99.90;;;;;;5041656;28;20295;-65
2023/09/06 03:16:38;;;;;;;3.05;2.60;;;17.40;99.90;;;;;;5051945;28;20288;-65
2023/09/06 03:19:09;;;;;;;2.85;2.60;;;17.40;99.90;;;;;;5037981;28;20232;-66
2023/09/06 03:21:37;;;;;;;3.00;2.75;;;17.30;99.90;;;;;;5047954;28;20204;-66
2023/09/06 03:24:11;;;;;;;3.05;2.75;;;17.30;99.90;;;;;;5035073;28;20216;-66
2023/09/06 03:26:39;;;;;;;3.08;2.70;;;17.30;99.90;;;;;;5018180;28;20210;-66
2023/09/06 03:29:10;;;;;;;2.80;2.60;;;17.20;99.90;;;;;;5049179;28;20208;-65
2023/09/06 03:31:42;;;;;;;4.63;2.60;;;17.20;99.90;;;;;;5050040;28;20195;-65
2023/09/06 03:34:13;;;;;;;2.80;2.50;;;17.20;99.90;;;;;;5047700;28;20196;-65
2023/09/06 03:36:40;;;;;;;3.35;2.70;;;17.00;99.90;;;;;;5057898;28;21176;-65
2023/09/06 03:39:13;;;;;;;3.20;2.90;;;17.20;99.90;;;;;;5044643;28;20309;-65
2023/09/06 03:41:39;;;;;;;7.22;2.70;;;17.10;99.90;;;;;;5015018;28;20196;-65
2023/09/06 03:44:06;;;;;;;3.13;2.80;;;17.20;99.90;;;;;;5039405;28;20834;-66
2023/09/06 03:46:34;;;;;;;2.95;2.60;;;16.90;99.90;;;;;;5047786;28;20216;-65
2023/09/06 03:49:05;;;;;;;2.95;2.60;;;17.20;99.90;;;;;;5045039;28;20200;-65
2023/09/06 03:51:32;;;;;;;4.45;2.65;;;17.10;99.90;;;;;;5048955;28;20200;-65
2023/09/06 03:54:00;;;;;;;2.97;2.63;;;17.10;99.90;;;;;;5047098;28;20204;-65
2023/09/06 03:56:28;;;;;;;5.57;2.90;;;17.10;99.90;;;;;;5026343;28;20248;-66
2023/09/06 03:58:55;;;;;;;3.30;2.92;;;17.20;99.90;;;;;;5039182;28;20927;-65
2023/09/06 04:01:25;;;;;;;4.03;2.67;;;17.20;99.90;;;;;;5053860;28;20836;-65
2023/09/06 04:03:52;;;;;;;6.68;3.22;;;17.10;99.90;;;;;;5048538;28;20203;-65
2023/09/06 04:06:19;;;;;;;3.40;2.83;;;17.10;99.90;;;;;;5047295;28;20233;-66
2023/09/06 04:08:46;;;;;;;3.05;2.75;;;16.90;99.90;;;;;;5040018;28;20204;-66
2023/09/06 04:11:13;;;;;;;2.92;2.67;;;;;;;;;;5065488;28;20208;-65
2023/09/06 04:13:42;;;;;;;3.63;3.03;;;16.90;99.90;;;;;;5025055;28;20216;-65
2023/09/06 04:16:09;;;;;;;4.25;2.78;;;16.80;99.90;;;;;;5031265;28;20306;-65
2023/09/06 04:18:36;;;;;;;3.00;2.45;;;16.70;99.90;;;;;;5048409;28;20212;-65
2023/09/06 04:21:08;;;;;;;3.40;2.72;;;16.70;99.90;;;;;;5052331;28;20261;-65
2023/09/06 04:23:36;;;;;;;6.60;2.58;;;16.40;99.90;;;;;;5047065;28;20211;-65
2023/09/06 04:26:04;;;;;;;3.00;2.35;;;16.70;99.90;;;;;;5040959;28;20276;-66
2023/09/06 04:28:31;;;;;;;4.97;2.92;;;16.80;99.90;;;;;;5014120;28;21975;-66
2023/09/06 04:31:00;;;;;;;4.28;3.03;;;17.20;99.90;;;;;;5045850;28;20908;-65
2023/09/06 04:33:26;;;;;;;4.97;2.50;;;16.60;99.90;;;;;;5035852;28;20287;-65
2023/09/06 04:35:53;;;;;;;4.60;2.70;;;16.70;99.90;;;;;;5046943;28;20207;-65
2023/09/06 04:38:23;;;;;;;2.85;2.58;;;16.70;99.90;;;;;;5032313;28;20227;-65
2023/09/06 04:40:51;;;;;;;3.88;2.38;;;16.70;99.90;;;;;;5039981;28;20762;-65
2023/09/06 04:43:19;;;;;;;6.63;2.88;;;16.70;99.90;;;;;;5045344;28;20192;-65
2023/09/06 04:45:47;;;;;;;3.80;2.60;;;16.70;99.90;;;;;;5004567;28;21191;-66
2023/09/06 04:48:16;;;;;;;4.50;3.00;;;16.50;99.90;;;;;;5049943;28;20208;-66
2023/09/06 04:50:45;;;;;;;3.40;2.63;;;16.70;99.90;;;;;;5030348;28;20201;-65
2023/09/06 04:53:13;;;;;;;4.90;2.65;;;16.50;99.90;;;;;;5033503;28;20224;-65
2023/09/06 04:55:40;;;;;;;6.03;2.70;;;16.60;99.90;;;;;;5032679;28;20210;-65
2023/09/06 04:58:08;;;;;;;3.58;2.78;;;16.60;99.90;;;;;;5048287;28;20233;-65
2023/09/06 05:00:38;;;;;;;5.43;2.60;;;16.60;99.90;;;;;;5010327;28;20270;-65
2023/09/06 05:03:08;;;;;;;7.30;2.92;;;16.50;99.90;;;;;;5028130;28;20223;-65
2023/09/06 05:05:36;;;;;;;5.78;2.92;;;16.60;99.90;;;;;;5041670;28;20196;-65
2023/09/06 05:08:04;;;;;;;2.70;2.42;;;16.60;99.90;;;;;;5036116;28;20228;-65
2023/09/06 05:10:31;;;;;;;5.13;3.35;;;16.30;99.90;;;;;;5024740;28;20219;-65
2023/09/06 05:12:58;;;;;;;4.18;3.10;;;16.60;99.90;;;;;;5007481;28;20224;-65
2023/09/06 05:15:24;;;;;;;5.90;2.90;;;16.70;99.90;;;;;;5029243;28;20243;-65
2023/09/06 05:17:51;;;;;;;2.83;2.53;;;16.70;99.90;;;;;;4988403;28;20232;-66
2023/09/06 05:20:29;;;;;;;5.43;3.15;;;16.80;99.90;;;;;;5053707;28;20261;-65
2023/09/06 05:22:59;;;;;;;4.78;2.70;;;16.70;99.90;;;;;;5050671;28;20633;-65
2023/09/06 05:25:26;;;;;;;2.90;2.70;;;16.70;99.90;;;;;;5041352;28;20266;-65
2023/09/06 05:27:55;;;;;;;4.25;2.58;;;16.80;99.90;;;;;;5038610;28;20656;-65
2023/09/06 05:30:22;;;;;;;3.33;2.70;;;16.60;99.90;;;;;;5057663;28;20681;-65
2023/09/06 05:32:49;;;;;;;5.18;2.78;;;16.60;99.90;;;;;;5014503;28;20222;-65
2023/09/06 05:35:16;;;;;;;4.15;3.13;;;16.80;99.90;;;;;;5042117;28;20204;-66
2023/09/06 05:37:43;;;;;;;6.30;2.75;;;16.70;99.90;;;;;;5043301;28;20228;-65
2023/09/06 05:40:12;;;;;;;4.75;2.60;;;16.80;99.90;;;;;;5041711;28;20760;-65
2023/09/06 05:42:39;;;;;;;3.22;2.95;;;16.80;99.90;;;;;;5046352;28;20717;-64
2023/09/06 05:45:10;;;;;;;6.45;3.00;;;16.70;99.90;;;;;;5053432;28;20211;-64
2023/09/06 05:47:38;;;;;;;8.82;2.92;;;16.80;99.90;;;;;;5011527;28;20373;-64
2023/09/06 05:50:06;;;;;;;3.38;2.50;;;16.80;99.90;;;;;;5027993;28;20196;-65
2023/09/06 05:52:33;;;;;;;4.60;2.67;;;16.80;99.90;;;;;;5050213;28;20197;-65
2023/09/06 05:54:59;;;;;;;3.67;2.70;;;16.80;99.90;;;;;;5037004;28;20575;-65
2023/09/06 05:57:28;;;;;;;8.70;2.90;;;16.80;99.90;;;;;;5042044;28;20252;-65
2023/09/06 05:59:54;;;;;;;9.27;2.85;;;16.80;99.90;;;;;;5046698;28;20594;-65
2023/09/06 06:02:22;;;;;;;10.55;3.05;;;16.90;99.90;;;;;;5017925;28;20219;-65
2023/09/06 06:04:49;;;;;;;2.70;2.50;;;17.00;99.90;;;;;;5037568;28;20312;-65
2023/09/06 06:07:17;;;;;;;4.03;2.67;;;17.00;99.90;;;;;;5050457;28;20220;-65
2023/09/06 06:09:44;;;;;;;4.00;2.70;;;17.20;99.90;;;;;;5048258;28;20311;-65
2023/09/06 06:12:11;;;;;;;3.60;3.03;;;17.20;99.90;;;;;;5027994;28;20236;-65
2023/09/06 06:14:39;;;;;;;9.10;2.67;;;17.20;99.90;;;;;;5047379;28;20238;-65
2023/09/06 06:17:09;;;;;;;10.73;2.78;;;17.40;99.90;;;;;;5025215;28;20201;-65
2023/09/06 06:19:36;;;;;;;6.38;2.88;;;17.60;99.90;;;;;;5030593;28;20220;-65
2023/09/06 06:22:03;;;;;;;5.50;2.70;;;17.40;99.90;;;;;;5036949;28;20203;-65
2023/09/06 06:24:31;;;;;;;3.67;3.00;;;17.60;99.90;;;;;;5054661;28;20192;-65
2023/09/06 06:26:58;;;;;;;4.85;3.20;;;17.80;99.90;;;;;;5044510;28;20215;-65
2023/09/06 06:29:25;;;;;;;2.92;2.63;;;17.90;99.90;;;;;;5032941;28;20250;-65
2023/09/06 06:31:53;;;;;;;4.53;3.05;;;18.00;99.90;;;;;;5042841;28;26648;-65
2023/09/06 06:34:20;;;;;;;3.08;2.78;;;18.10;99.90;;;;;;5003220;28;20907;-65
2023/09/06 06:36:47;;;;;;;3.65;2.70;;;18.10;99.90;;;;;;5046149;28;20240;-65
2023/09/06 06:39:14;;;;;;;6.15;3.33;;;18.20;99.90;;;;;;5050325;28;20199;-65
2023/09/06 06:41:41;;;;;;;4.70;3.50;;;18.20;99.90;;;;;;5047153;28;20226;-65
2023/09/06 06:44:09;;;;;;;5.65;3.63;;;;;;;;;;5039795;28;20220;-65
2023/09/06 06:46:38;;;;;;;5.68;3.55;;;18.40;99.90;;;;;;5052939;28;20351;-65
2023/09/06 06:49:08;;;;;;;4.15;3.42;;;18.30;99.90;;;;;;5042454;28;20597;-65
2023/09/06 06:51:38;;;;;;;8.75;3.47;;;18.50;99.90;;;;;;5037562;28;20882;-65
2023/09/06 06:54:07;;;;;;;6.15;3.58;;;18.50;99.90;;;;;;5061227;28;20201;-65
2023/09/06 06:56:34;;;;;;;4.80;3.90;;;18.80;99.90;;;;;;5045343;28;20273;-65
2023/09/06 06:59:01;;;;;;;4.97;3.47;;;18.70;99.90;;;;;;5044369;28;20208;-64
2023/09/06 07:01:28;;;;;;;4.40;3.53;;;18.70;99.90;;;;;;5059701;28;20234;-65
2023/09/06 07:03:55;;;;;;;4.93;3.60;;;18.70;99.90;;;;;;5057901;28;20212;-65
2023/09/06 07:06:24;;;;;;;8.55;3.92;;;18.80;99.90;;;;;;5017104;28;20244;-65
2023/09/06 07:08:51;;;;;;;5.97;3.70;;;18.80;99.90;;;;;;5060642;28;20212;-65
2023/09/06 07:11:18;;;;;;;7.32;3.58;;;18.80;99.90;;;;;;5046789;28;20343;-65
2023/09/06 07:13:47;;;;;;;6.78;3.85;;;18.90;99.90;;;;;;5046674;28;20207;-65
2023/09/06 07:16:14;;;;;;;8.35;4.20;;;18.90;99.90;;;;;;5056350;28;20235;-65
2023/09/06 07:18:41;;;;;;;7.97;4.15;;;19.00;99.90;;;;;;5058241;28;20193;-65
2023/09/06 07:21:08;;;;;;;8.82;5.35;;;19.00;99.90;;;;;;5023902;28;20239;-65
2023/09/06 07:23:37;;;;;;;12.55;4.72;;;19.10;99.90;;;;;;5057770;28;20207;-65
2023/09/06 07:26:04;;;;;;;9.05;4.63;;;19.20;99.90;;;;;;5061868;28;20188;-65
2023/09/06 07:28:38;;;;;;;12.40;4.68;;;19.20;99.90;;;;;;5039097;28;20227;-65
2023/09/06 07:31:04;;;;;;;10.73;5.25;;;19.30;99.90;;;;;;5062044;28;20197;-65
2023/09/06 07:33:31;;;;;;;10.68;4.60;;;19.40;99.90;;;;;;5055289;28;20356;-65
2023/09/06 07:35:58;;;;;;;11.73;4.07;;;19.40;99.90;;;;;;5021574;28;20611;-65
2023/09/06 07:38:25;;;;;;;7.80;4.80;;;19.50;99.90;;;;;;5052804;28;20211;-65
2023/09/06 07:40:58;;;;;;;9.52;3.63;;;19.50;99.90;;;;;;5059118;28;20228;-65
2023/09/06 07:43:26;;;;;;;6.63;3.72;;;19.60;99.90;;;;;;5033877;28;20918;-65
2023/09/06 07:45:53;;;;;;;8.45;4.10;;;19.60;99.90;;;;;;5056975;28;20189;-65
2023/09/06 07:48:20;;;;;;;9.68;4.10;;;19.70;99.90;;;;;;5053768;28;20262;-65
2023/09/06 07:50:48;;;;;;;8.25;3.45;;;19.80;99.90;;;;;;5025252;28;20205;-65
2023/09/06 07:53:15;;;;;;;9.07;4.07;;;19.80;99.90;;;;;;5059118;28;20937;-65
2023/09/06 07:55:44;;;;;;;8.88;3.97;;;19.90;99.90;;;;;;5058446;28;20690;-65
2023/09/06 07:58:13;;;;;;;9.32;4.45;;;20.00;99.90;;;;;;5055559;28;20215;-65
2023/09/06 08:00:39;;;;;;;5.82;4.35;;;20.00;99.90;;;;;;5040785;28;20487;-65
2023/09/06 08:03:07;;;;;;;7.57;5.22;;;20.10;99.90;;;;;;5056293;28;20503;-65
2023/09/06 08:05:35;;;;;;;6.70;4.32;;;20.30;99.90;;;;;;5058220;28;20820;-65
2023/09/06 08:08:01;;;;;;;12.05;4.78;;;20.30;99.90;;;;;;5024598;28;20229;-65
2023/09/06 08:10:27;;;;;;;11.43;4.20;;;20.30;99.90;;;;;;5058386;28;20732;-65
2023/09/06 08:12:54;;;;;;;8.90;3.80;;;20.40;99.90;;;;;;5056211;28;20213;-65
2023/09/06 08:15:22;;;;;;;7.22;4.15;;;20.50;99.90;;;;;;5036155;28;20225;-65
2023/09/06 08:17:50;;;;;;;5.10;3.08;;;20.60;99.90;;;;;;5056945;28;20193;-65
2023/09/06 08:20:17;;;;;;;8.18;3.40;;;20.70;99.90;;;;;;5060764;28;20597;-65
2023/09/06 08:22:45;;;;;;;6.28;3.45;;;20.80;99.90;;;;;;5020959;28;20235;-65
2023/09/06 08:25:12;;;;;;;6.95;3.10;;;20.90;99.90;;;;;;5059309;28;20198;-65
2023/09/06 08:27:38;;;;;;;6.13;3.13;;;21.00;99.90;;;;;;5055202;28;20208;-65
2023/09/06 08:30:07;;;;;;;8.10;3.28;;;21.10;99.90;;;;;;5052768;28;20196;-65
2023/09/06 08:32:35;;;;;;;12.70;3.58;;;21.10;99.90;;;;;;5044907;28;20196;-65
2023/09/06 08:35:02;;;;;;;6.28;3.80;;;21.30;99.90;;;;;;5060760;28;20680;-65
2023/09/06 08:37:28;;;;;;;9.70;4.47;;;21.30;99.90;;;;;;5022175;28;20419;-65
2023/09/06 08:39:56;;;;;;;7.57;4.00;;;21.30;99.90;;;;;;5055661;28;20201;-65
2023/09/06 08:42:24;;;;;;;7.95;4.13;;;21.30;99.90;;;;;;5061279;28;20566;-65
2023/09/06 08:44:52;;;;;;;6.70;3.47;;;21.30;99.90;;;;;;5054016;28;20192;-65
2023/09/06 08:47:21;;;;;;;9.60;3.83;;;21.30;99.90;;;;;;5033619;28;20203;-65
2023/09/06 08:49:50;;;;;;;5.95;2.80;;;21.40;99.90;;;;;;5057797;28;20639;-65
2023/09/06 08:52:17;;;;;;;5.70;3.20;;;21.50;99.90;;;;;;5024673;28;20216;-66
2023/09/06 08:54:45;;;;;;;5.97;3.15;;;21.50;99.90;;;;;;5055915;28;20479;-65
2023/09/06 08:57:13;;;;;;;7.78;2.80;;;21.80;99.90;;;;;;5055280;28;20196;-65
2023/09/06 08:59:41;;;;;;;7.47;2.47;;;21.70;99.90;;;;;;5056610;28;20250;-65
2023/09/06 09:02:10;;;;;;;12.88;3.25;;;21.80;99.90;;;;;;5041741;28;20896;-65
2023/09/06 09:04:40;;;;;;;8.38;2.75;;;21.80;99.90;;;;;;5048184;28;21045;-65
2023/09/06 09:07:10;;;;;;;5.47;2.67;;;21.90;99.90;;;;;;5056129;28;20565;-65
2023/09/06 09:09:56;;;;;;;5.45;2.50;;;21.90;99.90;;;;;;5018488;28;20613;-65
2023/09/06 09:12:25;;;;;;;6.95;3.08;;;21.90;99.90;;;;;;5051686;28;20506;-65
2023/09/06 09:14:51;;;;;;;12.38;3.55;;;22.00;99.90;;;;;;5054139;28;20233;-65
2023/09/06 09:17:21;;;;;;;6.22;2.92;;;22.00;99.90;;;;;;5036933;28;20200;-65
2023/09/06 09:19:50;;;;;;;17.92;3.75;;;22.10;99.90;;;;;;5057908;28;20199;-65
2023/09/06 09:22:22;;;;;;;8.85;3.28;;;22.30;99.90;;;;;;5059472;28;20864;-65
2023/09/06 09:24:49;;;;;;;6.88;3.10;;;22.40;99.90;;;;;;5023566;28;20205;-65
2023/09/06 09:27:18;;;;;;;7.47;3.13;;;22.60;99.90;;;;;;5059863;28;20207;-66
2023/09/06 09:29:47;;;;;;;4.65;2.83;;;22.60;99.90;;;;;;5055779;28;20211;-65
2023/09/06 09:32:15;;;;;;;4.93;2.80;;;22.50;99.90;;;;;;5049209;28;20313;-66
2023/09/06 09:34:42;;;;;;;6.28;2.50;;;22.60;99.90;;;;;;5048683;28;20209;-65
2023/09/06 09:37:10;;;;;;;2.65;1.55;;;22.60;99.90;;;;;;5063116;28;20513;-66
2023/09/06 09:39:38;;;;;;;1.60;1.50;;;22.80;99.90;;;;;;5018629;28;20508;-65
2023/09/06 09:42:05;;;;;;;1.88;1.63;;;23.20;99.90;;;;;;5059514;28;20232;-65
2023/09/06 09:44:33;;;;;;;1.73;1.63;;;23.30;99.90;;;;;;5051349;28;20203;-65
2023/09/06 09:47:09;;;;;;;5.18;1.52;;;23.10;99.90;;;;;;5058076;28;20196;-65
2023/09/06 09:49:37;;;;;;;2.35;1.50;;;23.40;99.90;;;;;;5036447;28;20431;-65
2023/09/06 09:52:05;;;;;;;2.22;1.60;;;23.40;99.90;;;;;;5056699;28;20976;-65
2023/09/06 09:54:34;;;;;;;2.05;1.30;;;23.50;99.90;;;;;;5017061;28;20208;-65
2023/09/06 09:57:05;;;;;;;1.35;1.17;;;23.50;99.90;;;;;;5056595;28;20212;-65
2023/09/06 09:59:33;;;;;;;8.48;1.55;;;23.50;99.90;;;;;;5056032;28;20738;-65
2023/09/06 10:02:00;;;;;;;1.65;1.48;;;23.50;99.90;;;;;;5064330;28;20528;-65
2023/09/06 10:04:30;;;;;;;4.03;1.60;;;23.50;99.90;;;;;;5041906;28;20212;-65
2023/09/06 10:06:58;;;;;;;2.53;1.70;;;23.50;99.90;;;;;;5056647;28;20633;-65
2023/09/06 10:09:26;;;;;;;2.00;1.80;;;23.60;99.90;;;;;;5053211;28;20201;-65
2023/09/06 10:11:53;;;;;;;1.63;1.52;;;23.60;99.90;;;;;;5016748;28;20216;-65
2023/09/06 10:14:25;;;;;;;5.00;1.80;;;23.60;99.90;;;;;;5052672;28;24707;-65
2023/09/06 10:16:53;;;;;;;2.63;1.50;;;23.60;99.90;;;;;;5047670;28;20207;-65
2023/09/06 10:19:21;;;;;;;3.83;1.70;;;23.60;99.90;;;;;;5043915;28;20669;-65
2023/09/06 10:21:49;;;;;;;2.58;1.58;;;23.70;99.90;;;;;;5056347;28;20224;-65
2023/09/06 10:24:19;;;;;;;1.33;1.23;;;23.70;99.90;;;;;;5053540;28;20201;-65
2023/09/06 10:26:47;;;;;;;1.77;1.50;;;23.70;99.90;;;;;;5019361;28;20215;-65
2023/09/06 10:29:19;;;;;;;1.77;1.52;;;23.80;99.90;;;;;;5054161;28;20648;-65
2023/09/06 10:31:52;;;;;;;3.42;1.70;;;23.90;99.90;;;;;;5047447;28;21140;-65
2023/09/06 10:34:19;;;;;;;2.00;1.50;;;23.90;99.90;;;;;;5059899;28;20715;-65
2023/09/06 10:36:51;;;;;;;1.70;1.30;;;23.90;99.90;;;;;;5048589;28;20325;-67
2023/09/06 10:39:21;;;;;;;3.13;1.40;;;23.90;99.90;;;;;;5058925;28;20199;-65
2023/09/06 10:42:16;;;;;;;2.03;1.55;;;23.90;99.90;;;;;;5022437;28;20231;-65
2023/09/06 10:45:11;;;;;;;2.50;1.70;;;23.90;99.90;;;;;;5061761;28;20192;-65
2023/09/06 10:47:41;;;;;;;3.10;1.60;;;23.90;99.90;;;;;;5052483;28;21321;-65
2023/09/06 10:50:08;;;;;;;2.03;1.45;;;24.00;99.90;;;;;;5055128;28;20201;-65
2023/09/06 10:52:43;;;;;;;2.40;1.60;;;24.00;99.90;;;;;;5047833;28;20212;-65
2023/09/06 10:55:16;;;;;;;2.17;1.52;;;24.10;99.90;;;;;;5060120;28;20699;-65
2023/09/06 10:58:08;;;;;;;1.85;1.30;;;24.20;99.90;;;;;;5020194;28;20207;-65
2023/09/06 11:00:35;;;;;;;1.98;1.73;;;24.20;99.90;;;;;;5060059;28;20942;-65
2023/09/06 11:03:32;;;;;;;2.25;1.55;;;24.30;99.90;;;;;;5047977;28;20224;-65
2023/09/06 11:05:59;;;;;;;1.90;1.40;;;24.40;99.90;;;;;;5033592;28;20207;-65
2023/09/06 11:08:30;;;;;;;5.65;1.50;;;24.40;99.90;;;;;;5053341;28;20200;-65
2023/09/06 11:11:02;;;;;;;2.83;1.35;;;24.40;99.90;;;;;;5061199;28;20326;-65
2023/09/06 11:13:32;;;;;;;5.30;1.60;;;24.40;99.90;;;;;;5021050;28;20413;-65
2023/09/06 11:16:00;;;;;;;1.63;1.52;;;24.40;99.90;;;;;;5031145;28;20661;-65
2023/09/06 11:18:27;;;;;;;1.77;1.33;;;24.50;99.90;;;;;;5026098;28;20201;-65
2023/09/06 11:20:55;;;;;;;1.45;1.35;;;24.50;99.90;;;;;;5038523;28;20223;-65
2023/09/06 11:23:23;;;;;;;1.80;1.40;;;24.60;99.90;;;;;;5050425;28;20211;-65
2023/09/06 11:25:57;;;;;;;4.97;1.50;;;24.70;99.90;;;;;;5065340;28;21019;-65
2023/09/06 11:28:24;;;;;;;1.65;1.38;;;24.70;99.90;;;;;;5022381;28;20246;-65
2023/09/06 11:30:51;;;;;;;2.10;1.42;;;24.70;99.90;;;;;;5054555;28;20204;-65
2023/09/06 11:33:19;;;;;;;1.77;1.40;;;24.80;99.90;;;;;;5054198;28;20269;-65
2023/09/06 11:35:56;;;;;;;2.10;1.50;;;24.90;99.90;;;;;;5039134;28;20226;-65
2023/09/06 11:38:30;;;;;;;2.10;1.70;;;24.90;99.90;;;;;;5037019;28;20223;-65
2023/09/06 11:41:01;;;;;;;5.57;1.85;;;24.90;99.90;;;;;;5044208;28;20266;-65
2023/09/06 11:43:28;;;;;;;3.65;1.60;;;25.00;99.90;;;;;;5015816;28;20797;-65
2023/09/06 11:45:56;;;;;;;1.50;1.40;;;25.00;99.90;;;;;;5042666;28;20749;-66
2023/09/06 11:48:29;;;;;;;2.60;1.48;;;25.00;99.90;;;;;;5041730;28;20197;-65
2023/09/06 11:51:03;;;;;;;3.85;1.55;;;25.00;99.90;;;;;;5045773;28;20204;-65
2023/09/06 11:53:32;;;;;;;1.73;1.63;;;25.00;99.90;;;;;;5041914;28;20670;-65
2023/09/06 11:55:59;;;;;;;2.53;1.52;;;25.00;99.90;;;;;;5048683;28;20941;-66
2023/09/06 11:58:27;;;;;;;3.10;1.80;;;25.20;99.90;;;;;;5012053;28;23704;-66
2023/09/06 12:00:56;;;;;;;3.75;1.73;;;25.10;99.90;;;;;;5053969;28;20214;-65
2023/09/06 12:03:33;;;;;;;3.40;1.70;;;25.20;99.90;;;;;;5033027;28;20229;-65
2023/09/06 12:06:00;;;;;;;2.33;1.42;;;25.30;99.90;;;;;;5060705;28;20216;-65
2023/09/06 12:08:29;;;;;;;2.58;1.70;;;25.30;99.90;;;;;;5037687;28;21322;-65
2023/09/06 12:11:08;;;;;;;3.80;1.67;;;25.30;99.90;;;;;;5048147;28;20571;-65
2023/09/06 12:13:37;;;;;;;2.28;1.70;;;25.20;99.90;;;;;;5019745;28;21706;-65
2023/09/06 12:16:05;;;;;;;2.28;1.80;;;25.40;99.90;;;;;;5024031;28;20591;-65
2023/09/06 12:18:34;;;;;;;9.05;1.70;;;25.40;99.90;;;;;;5035763;28;20229;-65
2023/09/06 12:21:01;;;;;;;3.70;1.52;;;25.40;99.90;;;;;;5029076;28;20228;-65
2023/09/06 12:23:29;;;;;;;1.67;1.40;;;25.60;99.90;;;;;;5034326;28;20736;-65
2023/09/06 12:25:58;;;;;;;1.75;1.65;;;25.60;99.90;;;;;;5055707;28;20204;-66
2023/09/06 12:28:26;;;;;;;2.50;1.58;;;25.60;99.90;;;;;;5063540;28;20197;-65
2023/09/06 12:30:55;;;;;;;2.75;1.92;;;25.60;99.90;;;;;;5009166;28;20777;-65
2023/09/06 12:33:22;;;;;;;1.73;1.52;;;25.70;99.90;;;;;;5040402;28;20595;-65
2023/09/06 12:35:57;;;;;;;3.20;1.80;;;25.70;99.90;;;;;;5039806;28;20692;-65
2023/09/06 12:38:24;;;;;;;3.38;1.70;;;25.60;99.90;;;;;;5023011;28;20196;-66
2023/09/06 12:40:51;;;;;;;2.00;1.60;;;25.60;99.90;;;;;;5047069;28;20657;-65
2023/09/06 12:43:20;;;;;;;2.60;1.67;;;25.60;99.90;;;;;;5037329;28;20224;-66
2023/09/06 12:45:48;;;;;;;2.45;1.50;;;25.60;99.90;;;;;;5006102;28;20219;-65
2023/09/06 12:48:16;;;;;;;2.42;1.60;;;25.70;99.90;;;;;;5046735;28;20254;-66
2023/09/06 12:50:43;;;;;;;2.28;1.60;;;25.90;99.90;;;;;;5041804;28;20204;-65
2023/09/06 12:53:09;;;;;;;2.00;1.38;;;26.00;99.90;;;;;;5050224;28;20215;-65
2023/09/06 12:55:36;;;;;;;5.00;1.45;;;26.10;99.90;;;;;;5040703;28;20232;-65